Time;durP1;ratioP1;P1;durP2;ratioP2;P2;SDS_P1;SDS_P2;PMS_P1;PMS_P2;Temp;Humidity;BMP_temperature;BMP_pressure;BME280_temperature;BME280_humidity;BME280_pressure;Samples;Min_cycle;Max_cycle;Signal;HPM_P1;HPM_P2
2021/04/22 00:00:37;;;;;;;20.37;13.50;;;;;;;8.74;63.72;99384.81;234704;1174;116409;-71
2021/04/22 00:05:51;;;;;;;16.13;10.48;;;;;;;8.62;63.50;99386.64;235182;1176;115335;-69
2021/04/22 00:10:56;;;;;;;18.05;11.68;;;;;;;8.50;64.08;99378.69;234118;1174;115735;-69
2021/04/22 00:16:01;;;;;;;15.27;9.77;;;;;;;8.38;64.04;99386.63;233210;1174;114989;-68
2021/04/22 00:21:06;;;;;;;15.50;10.78;;;;;;;8.30;64.74;99392.23;233539;1174;115076;-69
2021/04/22 00:26:09;;;;;;;16.50;12.77;;;;;;;8.28;64.71;99404.11;233121;1174;115592;-67
2021/04/22 00:31:13;;;;;;;18.23;12.40;;;;;;;8.25;64.39;99408.06;232576;1174;115309;-68
2021/04/22 00:36:17;;;;;;;24.35;12.23;;;;;;;8.17;65.37;99408.38;232408;1174;115369;-67
2021/04/22 00:41:21;;;;;;;17.87;11.90;;;;;;;8.16;65.71;99406.76;233059;1174;116883;-67
2021/04/22 00:46:25;;;;;;;18.43;12.83;;;;;;;8.12;64.95;99418.87;232656;1174;116066;-68
2021/04/22 00:51:28;;;;;;;14.75;12.70;;;;;;;8.08;65.63;99404.42;232749;1176;115514;-69
2021/04/22 00:56:33;;;;;;;20.60;12.63;;;;;;;8.05;65.09;99428.76;232809;1174;116122;-69
2021/04/22 01:01:37;;;;;;;20.20;13.55;;;;;;;8.05;65.04;99442.03;232657;1174;116053;-68
2021/04/22 01:06:42;;;;;;;18.93;12.73;;;;;;;8.08;65.88;99444.24;233038;1174;115409;-67
2021/04/22 01:11:46;;;;;;;19.90;12.57;;;;;;;8.04;65.60;99437.76;232666;1170;115833;-67
2021/04/22 01:16:51;;;;;;;16.17;10.70;;;;;;;7.93;65.88;99434.05;232591;1175;115719;-66
2021/04/22 01:21:55;;;;;;;16.50;10.48;;;;;;;7.81;65.59;99425.21;233535;1174;115242;-67
2021/04/22 01:27:01;;;;;;;14.33;10.23;;;;;;;7.73;66.60;99431.63;232706;1176;117035;-68
2021/04/22 01:32:06;;;;;;;17.90;13.95;;;;;;;7.76;66.72;99433.03;233461;1175;116799;-68
2021/04/22 01:37:11;;;;;;;20.40;12.58;;;;;;;7.78;66.83;99438.92;233695;1175;115909;-68
2021/04/22 01:42:15;;;;;;;22.17;12.97;;;;;;;7.74;66.14;99446.52;233072;1174;116254;-68
2021/04/22 01:47:18;;;;;;;20.90;11.93;;;;;;;7.67;67.10;99459.05;232644;1174;115997;-67
2021/04/22 01:52:22;;;;;;;20.48;11.53;;;;;;;7.65;66.45;99474.38;235128;1174;116452;-68
2021/04/22 01:57:26;;;;;;;15.80;12.00;;;;;;;7.69;66.82;99486.16;235227;1176;117266;-68
2021/04/22 02:02:28;;;;;;;19.23;11.38;;;;;;;7.78;67.31;99487.50;235172;1176;115527;-68
2021/04/22 02:07:32;;;;;;;15.35;10.70;;;;;;;7.89;67.42;99477.98;234192;1176;115020;-68
2021/04/22 02:12:37;;;;;;;9.63;7.97;;;;;;;7.83;66.83;99460.30;234641;1176;115512;-67
2021/04/22 02:17:44;;;;;;;12.27;7.47;;;;;;;7.66;67.48;99457.42;233230;1176;115684;-69
2021/04/22 02:22:48;;;;;;;8.60;6.60;;;;;;;7.56;67.72;99473.07;233540;1176;115965;-69
2021/04/22 02:27:53;;;;;;;10.75;7.70;;;;;;;7.56;67.95;99483.68;233105;1175;116609;-68
2021/04/22 02:32:58;;;;;;;7.10;5.73;;;;;;;7.38;67.18;99475.70;233281;1176;115910;-67
2021/04/22 02:38:04;;;;;;;11.53;6.55;;;;;;;7.15;68.12;99486.14;233235;1175;114662;-67
2021/04/22 02:43:10;;;;;;;2.87;2.63;;;;;;;6.99;68.35;99472.43;232720;1174;115509;-67
2021/04/22 02:48:15;;;;;;;5.25;3.85;;;;;;;6.78;68.14;99475.45;232646;1175;115437;-68
2021/04/22 02:53:21;;;;;;;13.68;4.80;;;;;;;6.64;68.39;99495.95;232527;1175;114367;-68
2021/04/22 02:58:28;;;;;;;7.13;4.10;;;;;;;6.66;68.16;99514.27;232451;1174;115320;-68
2021/04/22 03:03:30;;;;;;;5.60;3.05;;;;;;;6.54;68.49;99468.30;232947;1176;115099;-68
2021/04/22 03:08:34;;;;;;;9.60;4.05;;;;;;;6.42;68.95;99497.30;232461;1174;115431;-68
2021/04/22 03:13:38;;;;;;;5.33;3.77;;;;;;;6.33;68.92;99509.19;232944;1174;114708;-68
2021/04/22 03:18:41;;;;;;;4.75;4.13;;;;;;;6.20;68.90;99518.00;232605;1174;114540;-68
2021/04/22 03:23:45;;;;;;;8.70;5.55;;;;;;;6.20;69.41;99517.19;233477;1174;115204;-68
2021/04/22 03:28:48;;;;;;;6.47;4.30;;;;;;;6.17;68.92;99520.25;232882;1174;115569;-67
2021/04/22 03:33:52;;;;;;;10.13;4.10;;;;;;;6.12;68.98;99509.48;232523;1176;115434;-67
2021/04/22 03:38:55;;;;;;;13.60;5.30;;;;;;;5.96;69.08;99524.02;232987;1174;114873;-69
2021/04/22 03:43:59;;;;;;;7.15;4.88;;;;;;;5.77;69.59;99525.70;233219;1174;115976;-67
2021/04/22 03:49:04;;;;;;;6.83;5.33;;;;;;;5.73;69.94;99535.06;232585;1174;115586;-66
2021/04/22 03:54:07;;;;;;;7.70;4.40;;;;;;;5.74;70.33;99542.80;233163;1174;114882;-66
2021/04/22 03:59:12;;;;;;;8.08;4.40;;;;;;;5.76;70.50;99545.23;234327;1174;115031;-67
2021/04/22 04:04:14;;;;;;;7.60;4.63;;;;;;;5.79;70.67;99573.09;235027;1167;114434;-67
2021/04/22 04:09:17;;;;;;;8.47;3.53;;;;;;;5.81;70.70;99586.93;235105;1174;114650;-67
2021/04/22 04:14:20;;;;;;;5.00;3.75;;;;;;;5.81;69.91;99581.64;235032;1174;114765;-67
2021/04/22 04:19:27;;;;;;;8.45;4.05;;;;;;;5.81;70.03;99586.93;233574;1174;114457;-66
2021/04/22 04:24:31;;;;;;;5.84;3.54;;;;;;;5.73;70.23;99582.67;234587;1174;115288;-67
2021/04/22 04:29:34;;;;;;;11.30;4.80;;;;;;;5.68;70.34;99588.57;232981;1174;116268;-66
2021/04/22 04:34:38;;;;;;;8.57;4.40;;;;;;;5.69;70.46;99590.20;232797;1174;117330;-66
2021/04/22 04:39:43;;;;;;;3.38;3.08;;;;;;;5.62;70.85;99591.22;233500;1167;116806;-67
2021/04/22 04:44:45;;;;;;;4.35;3.60;;;;;;;5.61;71.10;99595.70;233004;1174;115085;-66
2021/04/22 04:49:49;;;;;;;3.90;3.47;;;;;;;5.58;71.52;99611.97;232794;1174;115808;-66
2021/04/22 04:54:53;;;;;;;6.27;3.87;;;;;;;5.67;71.55;99631.91;233608;1176;116055;-67
2021/04/22 04:59:57;;;;;;;5.23;4.13;;;;;;;5.78;71.66;99625.19;233086;1174;117120;-66
2021/04/22 05:05:01;;;;;;;13.38;3.80;;;;;;;5.84;71.79;99626.98;232625;1174;115007;-68
2021/04/22 05:10:07;;;;;;;5.15;3.85;;;;;;;5.78;71.88;99638.41;232856;1174;114807;-69
2021/04/22 05:15:11;;;;;;;5.50;4.23;;;;;;;5.81;72.31;99626.61;233258;1175;114791;-68
2021/04/22 05:20:14;;;;;;;15.23;7.25;;;;;;;5.96;72.46;99630.66;233158;1174;115590;-67
2021/04/22 05:25:16;;;;;;;10.38;7.13;;;;;;;6.21;71.74;99636.08;232557;1177;116282;-66
2021/04/22 05:30:20;;;;;;;7.17;4.27;;;;;;;6.43;71.17;99649.84;233210;1170;115752;-65
2021/04/22 05:35:25;;;;;;;5.13;2.77;;;;;;;6.63;70.48;99645.29;232748;1176;117212;-67
2021/04/22 05:40:29;;;;;;;7.77;3.73;;;;;;;6.62;69.25;99654.26;233283;1176;115813;-68
2021/04/22 05:45:34;;;;;;;3.70;1.47;;;;;;;6.55;68.87;99656.12;234023;1174;115880;-68
2021/04/22 05:50:37;;;;;;;9.08;2.35;;;;;;;6.72;67.83;99653.81;234032;1167;115285;-68
2021/04/22 05:55:41;;;;;;;26.98;3.83;;;;;;;6.88;67.94;99653.30;233390;1176;116060;-68
2021/04/22 06:00:44;;;;;;;9.53;3.85;;;;;;;7.16;67.33;99657.41;234027;1174;117163;-68
2021/04/22 06:05:48;;;;;;;3.90;2.00;;;;;;;7.73;67.07;99665.12;232850;1175;116416;-68
2021/04/22 06:10:52;;;;;;;6.25;2.20;;;;;;;8.46;65.91;99658.28;235226;1176;116886;-68
2021/04/22 06:15:56;;;;;;;7.40;2.00;;;;;;;8.90;64.13;99665.06;233545;1175;117024;-68
2021/04/22 06:21:00;;;;;;;5.10;1.60;;;;;;;9.22;63.03;99662.97;234821;1174;115327;-69
2021/04/22 06:26:04;;;;;;;3.65;1.70;;;;;;;9.36;62.04;99667.06;233223;1174;116561;-70
2021/04/22 06:31:07;;;;;;;5.83;1.65;;;;;;;9.10;61.86;99681.56;233684;1174;115240;-68
2021/04/22 06:36:10;;;;;;;5.78;1.83;;;;;;;8.74;60.19;99693.89;232392;1167;117134;-69
2021/04/22 06:41:13;;;;;;;1.00;0.90;;;;;;;8.47;59.39;99697.09;232248;1174;116576;-69
2021/04/22 06:46:16;;;;;;;5.50;1.70;;;;;;;8.28;59.34;99705.01;232436;1174;116505;-66
2021/04/22 06:51:19;;;;;;;6.00;2.20;;;;;;;9.09;58.17;99706.53;232587;1176;114726;-67
2021/04/22 06:56:22;;;;;;;4.68;1.43;;;;;;;10.49;56.90;99708.55;232376;1175;115743;-68
2021/04/22 07:01:27;;;;;;;5.13;1.67;;;;;;;10.81;55.87;99717.73;232451;1176;115702;-67
2021/04/22 07:06:30;;;;;;;5.00;2.23;;;;;;;10.78;55.77;99731.55;232346;1174;115628;-66
2021/04/22 07:11:33;;;;;;;1.95;1.35;;;;;;;10.80;54.42;99729.45;232411;1174;114950;-66
2021/04/22 07:16:37;;;;;;;13.93;3.10;;;;;;;10.99;54.48;99719.44;232394;1175;115663;-66
2021/04/22 07:21:40;;;;;;;5.40;1.80;;;;;;;10.88;53.63;99729.09;232497;1175;115184;-65
2021/04/22 07:26:47;;;;;;;;;;;;;;;10.82;53.05;99729.22;232595;1175;117593;-65
2021/04/22 07:31:50;;;;;;;3.35;1.50;;;;;;;10.93;52.46;99739.86;234245;1175;103097;-64
2021/04/22 07:36:55;;;;;;;7.38;2.20;;;;;;;11.21;52.82;99741.73;233423;1175;115798;-67
2021/04/22 07:41:58;;;;;;;8.47;2.00;;;;;;;11.13;52.59;99740.24;232160;1174;117017;-67
2021/04/22 07:47:02;;;;;;;5.47;2.33;;;;;;;11.35;52.78;99747.56;233418;1176;115573;-68
2021/04/22 07:52:21;;;;;;;10.63;2.60;;;;;;;11.74;51.91;99751.20;235045;1174;115159;-65
2021/04/22 07:57:24;;;;;;;4.93;2.53;;;;;;;11.58;50.74;99746.66;234901;1175;116664;-67
2021/04/22 08:02:27;;;;;;;9.63;2.98;;;;;;;11.42;50.59;99753.58;234910;1176;116080;-72
2021/04/22 08:07:30;;;;;;;5.90;2.50;;;;;;;11.18;50.78;99749.39;234950;1171;116243;-69
2021/04/22 08:12:32;;;;;;;4.68;3.90;;;;;;;11.17;50.61;99743.25;235071;1174;115992;-69
2021/04/22 08:17:36;;;;;;;2.43;1.88;;;;;;;11.08;50.52;99750.00;235239;1176;117493;-69
2021/04/22 08:22:40;;;;;;;2.33;2.13;;;;;;;11.10;50.19;99748.72;235147;1175;116208;-69
2021/04/22 08:27:44;;;;;;;6.33;2.40;;;;;;;10.98;50.13;99765.83;235163;1170;116247;-69
2021/04/22 08:32:47;;;;;;;5.03;2.43;;;;;;;11.64;51.25;99764.36;235174;1177;117333;-68
2021/04/22 08:37:50;;;;;;;3.87;2.37;;;;;;;12.27;50.75;99750.71;234462;1176;117142;-70
2021/04/22 08:42:56;;;;;;;8.30;3.00;;;;;;;12.65;50.04;99755.26;231904;1171;117173;-69
2021/04/22 08:48:00;;;;;;;4.80;1.90;;;;;;;12.66;49.31;99754.20;233677;1175;116242;-68
2021/04/22 08:53:10;;;;;;;6.07;2.30;;;;;;;12.65;48.72;99754.45;232167;1174;116863;-69
2021/04/22 08:58:16;;;;;;;3.85;1.85;;;;;;;12.46;48.20;99760.09;233725;1174;115703;-69
2021/04/22 09:03:19;;;;;;;4.08;2.13;;;;;;;12.46;48.24;99770.79;231894;1174;115835;-68
2021/04/22 09:08:44;;;;;;;4.23;2.03;;;;;;;12.29;48.10;99778.01;232171;1169;115665;-69
2021/04/22 09:13:50;;;;;;;6.13;2.05;;;;;;;12.35;47.67;99774.36;235082;1174;115436;-69
2021/04/22 09:19:05;;;;;;;6.00;1.88;;;;;;;12.56;48.06;99775.45;232689;1174;116169;-69
2021/04/22 09:24:13;;;;;;;3.35;1.90;;;;;;;12.67;47.28;99766.52;234905;1174;114938;-69
2021/04/22 09:29:36;;;;;;;8.17;1.93;;;;;;;12.73;47.34;99772.75;233039;1176;115071;-67
2021/04/22 09:34:49;;;;;;;5.00;3.15;;;;;;;12.87;46.46;99767.83;232016;1171;115312;-67
2021/04/22 09:39:53;;;;;;;7.40;2.48;;;;;;;13.06;46.44;99774.50;232580;1175;114900;-67
2021/04/22 09:44:56;;;;;;;5.90;2.30;;;;;;;13.15;45.70;99789.88;234975;1176;115541;-67
2021/04/22 09:50:00;;;;;;;4.25;2.50;;;;;;;13.26;46.05;99780.10;233684;1170;114782;-67
2021/04/22 09:55:05;;;;;;;6.23;2.97;;;;;;;13.01;45.19;99783.27;233520;1174;116256;-67
2021/04/22 10:00:17;;;;;;;3.55;2.50;;;;;;;12.91;44.95;99788.48;234201;1175;115463;-67
2021/04/22 10:05:28;;;;;;;5.58;2.55;;;;;;;13.00;44.79;99784.33;234927;1175;115298;-66
2021/04/22 10:10:32;;;;;;;5.90;2.47;;;;;;;12.99;45.08;99787.25;235083;1176;116326;-66
2021/04/22 10:15:35;;;;;;;7.70;2.70;;;;;;;13.43;44.74;99785.39;235157;1175;115004;-66
2021/04/22 10:20:39;;;;;;;10.68;3.38;;;;;;;13.47;43.95;99778.44;235133;1176;114692;-67
2021/04/22 10:25:43;;;;;;;4.60;1.90;;;;;;;12.94;43.62;99782.64;235045;1175;115043;-67
2021/04/22 10:30:49;;;;;;;8.70;3.98;;;;;;;12.90;43.96;99781.52;235116;1174;116303;-67
2021/04/22 10:35:54;;;;;;;9.40;4.27;;;;;;;12.95;44.06;99780.77;235074;1176;116529;-67
2021/04/22 10:40:58;;;;;;;6.57;3.70;;;;;;;12.82;43.41;99773.95;233401;1176;117168;-66
2021/04/22 10:46:03;;;;;;;9.70;2.98;;;;;;;13.02;43.26;99771.52;232406;1167;117761;-67
2021/04/22 10:51:08;;;;;;;8.23;2.63;;;;;;;12.85;43.31;99773.42;233738;1175;117285;-67
2021/04/22 10:56:11;;;;;;;3.70;2.67;;;;;;;13.08;43.55;99775.06;233068;1175;116925;-66
2021/04/22 11:01:15;;;;;;;5.18;2.25;;;;;;;13.27;43.63;99778.23;232175;1175;116250;-67
2021/04/22 11:06:31;;;;;;;2.58;1.70;;;;;;;13.37;43.01;99773.81;234903;1176;116588;-67
2021/04/22 11:11:35;;;;;;;3.27;2.10;;;;;;;13.39;43.48;99774.37;232880;1169;117153;-67
2021/04/22 11:16:52;;;;;;;2.10;1.35;;;;;;;13.74;43.45;99765.06;233159;1174;115780;-64
2021/04/22 11:21:59;;;;;;;6.37;2.83;;;;;;;13.93;42.89;99774.33;232084;1176;117401;-67
2021/04/22 11:27:07;;;;;;;8.10;2.23;;;;;;;13.83;42.76;99783.08;232208;1175;116267;-67
2021/04/22 11:32:20;;;;;;;4.10;2.43;;;;;;;13.67;42.72;99784.02;232362;1176;116083;-67
2021/04/22 11:37:41;;;;;;;6.13;2.00;;;;;;;13.58;42.21;99787.39;232538;1174;116727;-66
2021/04/22 11:42:49;;;;;;;5.63;2.48;;;;;;;13.41;42.13;99782.15;232910;1174;117161;-68
2021/04/22 11:48:02;;;;;;;6.00;2.20;;;;;;;13.63;42.87;99788.26;233037;1171;117497;-68
2021/04/22 11:53:07;;;;;;;3.23;2.35;;;;;;;13.20;41.55;99785.64;234936;1176;116655;-68
2021/04/22 11:58:21;;;;;;;6.63;2.27;;;;;;;13.42;41.78;99773.06;233421;1175;116930;-68
2021/04/22 12:03:27;;;;;;;3.10;2.30;;;;;;;13.37;41.64;99771.13;232623;1174;116309;-66
2021/04/22 12:08:37;;;;;;;6.07;2.57;;;;;;;13.36;41.47;99766.84;234216;1175;116824;-67
2021/04/22 12:13:42;;;;;;;7.15;2.38;;;;;;;13.47;41.43;99767.73;235115;1175;117887;-68
2021/04/22 12:18:48;;;;;;;9.80;2.98;;;;;;;13.65;41.71;99759.35;235176;1176;116676;-68
2021/04/22 12:23:54;;;;;;;2.60;2.00;;;;;;;13.76;41.21;99762.91;235145;1176;117259;-67
2021/04/22 12:29:08;;;;;;;5.70;1.75;;;;;;;13.78;41.43;99750.88;234965;1176;117069;-67
2021/04/22 12:34:24;;;;;;;4.85;2.65;;;;;;;13.66;40.97;99754.80;235184;1176;116088;-66
2021/04/22 12:39:51;;;;;;;3.67;2.20;;;;;;;13.04;40.95;99756.02;233992;1175;116593;-67
2021/04/22 12:45:09;;;;;;;3.63;2.43;;;;;;;12.74;41.22;99752.97;234873;1176;116203;-66
2021/04/22 12:50:15;;;;;;;7.73;2.68;;;;;;;12.73;41.39;99752.16;235190;1176;117075;-64
2021/04/22 12:55:20;;;;;;;9.45;3.15;;;;;;;12.43;41.37;99759.77;234836;1175;116430;-67
2021/04/22 13:00:47;;;;;;;2.65;1.55;;;;;;;12.35;41.44;99752.98;232944;1176;116411;-67
2021/04/22 13:06:14;;;;;;;5.05;2.10;;;;;;;12.74;41.68;99758.32;232433;1177;116150;-65
2021/04/22 13:11:20;;;;;;;2.60;2.10;;;;;;;13.02;41.28;99752.78;233300;1176;116685;-70
2021/04/22 13:16:27;;;;;;;3.23;2.27;;;;;;;12.98;41.54;99756.20;232654;1175;116641;-68
2021/04/22 13:21:37;;;;;;;6.40;2.48;;;;;;;12.56;40.96;99754.06;232115;1176;116874;-67
2021/04/22 13:26:51;;;;;;;4.75;2.03;;;;;;;12.70;41.52;99727.77;233757;1174;116425;-67
2021/04/22 13:32:04;;;;;;;4.55;2.05;;;;;;;12.84;41.49;99758.42;232011;1176;116413;-68
2021/04/22 13:37:08;;;;;;;4.97;2.20;;;;;;;12.79;40.85;99753.04;231974;1176;116707;-68
2021/04/22 13:42:29;;;;;;;3.40;2.08;;;;;;;12.57;41.09;99742.30;234137;1175;117666;-66
2021/04/22 13:47:33;;;;;;;5.03;2.77;;;;;;;12.38;41.11;99749.01;232260;1175;116938;-66
2021/04/22 13:52:37;;;;;;;4.10;2.70;;;;;;;12.40;40.84;99750.38;232205;1174;116214;-65
2021/04/22 13:57:43;;;;;;;4.23;1.15;;;;;;;12.20;40.92;99755.45;232009;1175;116057;-67
2021/04/22 14:02:49;;;;;;;2.37;2.23;;;;;;;11.95;41.18;99744.34;232748;1175;115897;-66
2021/04/22 14:07:59;;;;;;;3.00;1.73;;;;;;;12.05;41.58;99752.52;232363;1174;114919;-68
2021/04/22 14:13:26;;;;;;;5.30;2.35;;;;;;;12.45;42.07;99752.32;235129;1174;114860;-64
2021/04/22 14:18:29;;;;;;;4.18;2.15;;;;;;;12.62;40.98;99750.41;234082;1174;115571;-65
2021/04/22 14:23:33;;;;;;;6.83;2.03;;;;;;;12.37;40.88;99758.08;234986;1175;116040;-67
2021/04/22 14:28:37;;;;;;;3.23;2.50;;;;;;;11.97;40.71;99756.41;235138;1177;116155;-66
2021/04/22 14:33:42;;;;;;;8.97;2.97;;;;;;;11.70;41.02;99755.39;235201;1176;116949;-67
2021/04/22 14:38:47;;;;;;;6.85;2.40;;;;;;;11.55;40.90;99769.30;235172;1167;116812;-67
2021/04/22 14:43:52;;;;;;;2.83;1.80;;;;;;;11.17;40.99;99777.94;235205;1175;116181;-67
2021/04/22 14:48:55;;;;;;;5.38;2.10;;;;;;;10.67;42.15;99841.70;235191;1176;115817;-69
2021/04/22 14:53:59;;;;;;;3.48;1.78;;;;;;;9.80;44.55;99860.05;233471;1175;116393;-67
2021/04/22 14:59:07;;;;;;;8.03;1.95;;;;;;;9.17;46.81;99868.45;233428;1176;115886;-66
2021/04/22 15:04:11;;;;;;;6.63;1.83;;;;;;;8.75;49.37;99891.38;234869;1176;138373;-65
2021/04/22 15:09:14;;;;;;;2.50;2.17;;;;;;;8.36;49.42;99911.94;233848;1176;116774;-66
2021/04/22 15:14:17;;;;;;;7.35;5.93;;;;;;;7.99;51.62;99916.23;233737;1175;115317;-66
2021/04/22 15:19:21;;;;;;;10.85;6.40;;;;;;;7.75;52.62;99925.76;232279;1175;116270;-65
2021/04/22 15:24:25;;;;;;;10.73;6.30;;;;;;;7.55;53.62;99934.84;232514;1176;116728;-68
2021/04/22 15:29:29;;;;;;;15.15;8.70;;;;;;;7.45;54.50;99911.40;232597;1175;116577;-67
2021/04/22 15:34:34;;;;;;;12.30;6.63;;;;;;;7.53;55.41;99905.87;233155;1176;117147;-66
2021/04/22 15:39:38;;;;;;;8.80;5.30;;;;;;;7.65;55.89;99893.55;232469;1176;116340;-66
2021/04/22 15:44:43;;;;;;;5.80;3.95;;;;;;;7.78;55.55;99901.45;233227;1174;115276;-69
2021/04/22 15:49:51;;;;;;;9.50;5.50;;;;;;;7.84;55.95;99905.10;233000;1176;115415;-67
2021/04/22 15:54:55;;;;;;;12.03;8.57;;;;;;;7.85;55.57;99909.39;233845;1176;115222;-68
2021/04/22 15:59:59;;;;;;;6.45;4.50;;;;;;;7.86;56.60;99912.85;233639;1174;115598;-67
2021/04/22 16:05:05;;;;;;;5.48;3.83;;;;;;;7.86;56.31;99921.63;233063;1169;114882;-69
2021/04/22 16:10:09;;;;;;;7.78;3.63;;;;;;;7.83;56.80;99937.97;234889;1175;114803;-69
2021/04/22 16:15:15;;;;;;;1.87;1.47;;;;;;;7.56;57.06;99969.11;235025;1176;114691;-69
2021/04/22 16:20:18;;;;;;;2.60;2.20;;;;;;;7.41;58.31;99948.13;234846;1176;115393;-65
2021/04/22 16:25:21;;;;;;;3.45;1.45;;;;;;;7.35;57.90;99929.58;235125;1174;116334;-65
2021/04/22 16:30:27;;;;;;;3.40;2.23;;;;;;;7.23;58.49;99923.31;235147;1174;114929;-67
2021/04/22 16:35:39;;;;;;;4.07;2.10;;;;;;;6.97;59.38;99930.30;235044;1173;114486;-67
2021/04/22 16:40:42;;;;;;;2.60;2.15;;;;;;;6.75;59.68;99920.94;235006;1174;115053;-68
2021/04/22 16:45:46;;;;;;;4.53;2.17;;;;;;;6.63;59.67;99927.89;235038;1175;136752;-68
2021/04/22 16:50:49;;;;;;;6.50;2.30;;;;;;;6.58;60.47;99935.63;235075;1174;115927;-65
2021/04/22 16:55:53;;;;;;;3.68;2.25;;;;;;;6.48;60.57;99929.91;235113;1176;115527;-68
2021/04/22 17:00:56;;;;;;;4.43;2.90;;;;;;;6.37;61.13;99932.16;235117;1176;115657;-67
2021/04/22 17:06:01;;;;;;;3.68;2.20;;;;;;;6.28;60.84;99932.55;235022;1176;115341;-69
2021/04/22 17:11:03;;;;;;;3.93;1.93;;;;;;;6.21;60.54;99924.59;234858;1174;115014;-65
2021/04/22 17:16:08;;;;;;;3.20;1.27;;;;;;;6.15;61.05;99933.34;235224;1175;115806;-66
2021/04/22 17:21:12;;;;;;;6.40;2.63;;;;;;;6.13;61.07;99935.37;234984;1175;114853;-64
2021/04/22 17:26:16;;;;;;;4.43;1.37;;;;;;;6.15;60.72;99946.57;235171;1174;115032;-66
2021/04/22 17:31:23;;;;;;;2.15;1.60;;;;;;;6.07;60.76;99957.37;234420;1174;115461;-68
2021/04/22 17:36:27;;;;;;;4.55;3.45;;;;;;;6.02;60.72;99951.85;232207;1176;115299;-67
2021/04/22 17:41:30;;;;;;;4.77;1.53;;;;;;;5.87;60.06;99949.33;231974;1176;114855;-66
2021/04/22 17:46:33;;;;;;;2.05;0.75;;;;;;;5.73;61.12;99956.41;232603;1174;114978;-66
2021/04/22 17:51:51;;;;;;;1.57;1.10;;;;;;;5.63;60.98;99965.72;233301;1174;114559;-66
2021/04/22 17:56:53;;;;;;;5.70;2.45;;;;;;;5.47;61.22;99968.70;233230;1174;115272;-67
2021/04/22 18:01:57;;;;;;;2.20;2.00;;;;;;;5.35;61.89;99971.89;233183;1176;115756;-67
2021/04/22 18:07:00;;;;;;;7.30;3.40;;;;;;;5.24;61.14;99974.25;232620;1177;115718;-68
2021/04/22 18:12:04;;;;;;;3.95;1.55;;;;;;;5.18;61.83;99980.34;232256;1175;115908;-67
2021/04/22 18:17:09;;;;;;;7.08;2.55;;;;;;;5.16;61.78;99982.35;232762;1174;115657;-67
2021/04/22 18:22:12;;;;;;;4.18;2.20;;;;;;;5.14;61.81;99993.12;235050;1176;116038;-67
2021/04/22 18:27:15;;;;;;;4.18;1.98;;;;;;;5.11;62.11;99992.69;233701;1176;115858;-66
2021/04/22 18:32:17;;;;;;;1.88;1.45;;;;;;;5.06;62.56;100002.00;234614;1176;115889;-66
2021/04/22 18:37:20;;;;;;;1.40;1.30;;;;;;;5.00;62.58;100000.13;235070;1175;119801;-65
2021/04/22 18:42:23;;;;;;;3.73;2.50;;;;;;;4.96;62.75;99998.87;235016;1176;116064;-67
2021/04/22 18:47:26;;;;;;;4.45;3.10;;;;;;;4.95;63.13;100015.72;235014;1176;115660;-67
2021/04/22 18:52:28;;;;;;;5.75;2.30;;;;;;;4.92;62.57;100013.46;235146;1174;115993;-67
2021/04/22 18:57:31;;;;;;;4.50;2.70;;;;;;;4.93;62.87;100015.09;233184;1176;119259;-66
2021/04/22 19:02:34;;;;;;;8.23;3.13;;;;;;;4.94;63.24;100014.09;234105;1174;114924;-66
2021/04/22 19:07:37;;;;;;;6.60;4.20;;;;;;;4.93;63.27;100017.73;233585;1175;115690;-66
2021/04/22 19:12:41;;;;;;;5.55;3.75;;;;;;;4.92;63.88;100023.20;233081;1174;116069;-66
2021/04/22 19:17:44;;;;;;;6.07;3.43;;;;;;;4.90;64.12;100036.61;234242;1171;117319;-64
2021/04/22 19:22:47;;;;;;;10.20;8.05;;;;;;;4.90;64.19;100044.53;233373;1176;116197;-67
2021/04/22 19:27:51;;;;;;;6.20;3.93;;;;;;;4.92;63.92;100039.88;232340;1175;116737;-66
2021/04/22 19:32:54;;;;;;;9.35;3.90;;;;;;;4.92;64.38;100034.59;233930;1176;115350;-66
2021/04/22 19:38:14;;;;;;;7.00;4.27;;;;;;;5.00;64.01;100039.75;233926;1170;115234;-67
2021/04/22 19:43:19;;;;;;;10.10;3.97;;;;;;;5.06;64.23;100044.27;232625;1174;115234;-67
2021/04/22 19:48:24;;;;;;;8.65;6.30;;;;;;;5.08;64.84;100044.91;233525;1174;116270;-66
2021/04/22 19:53:28;;;;;;;9.60;4.53;;;;;;;5.12;64.76;100044.52;233981;1174;115211;-66
2021/04/22 19:58:32;;;;;;;9.28;4.45;;;;;;;5.07;64.71;100030.05;233963;1176;115108;-64
2021/04/22 20:03:36;;;;;;;4.80;3.40;;;;;;;5.05;65.06;100036.53;233297;1174;114878;-64
2021/04/22 20:08:41;;;;;;;10.43;5.50;;;;;;;5.02;64.86;100037.73;233602;1174;115082;-66
2021/04/22 20:13:46;;;;;;;11.67;6.50;;;;;;;5.03;64.96;100042.02;232420;1174;115411;-66
2021/04/22 20:18:50;;;;;;;11.60;7.20;;;;;;;5.06;65.03;100052.20;233350;1176;115694;-64
2021/04/22 20:23:54;;;;;;;15.90;6.75;;;;;;;5.05;65.19;100052.39;234295;1174;115635;-64
2021/04/22 20:28:59;;;;;;;12.70;4.80;;;;;;;5.05;65.57;100053.20;232737;1171;116084;-63
2021/04/22 20:34:04;;;;;;;8.45;5.85;;;;;;;5.01;65.43;100057.23;235096;1170;116127;-65
2021/04/22 20:39:09;;;;;;;20.80;8.93;;;;;;;4.96;65.80;100051.70;235159;1174;115027;-65
2021/04/22 20:44:17;;;;;;;15.68;6.73;;;;;;;4.91;65.84;100051.45;235059;1174;114828;-64
2021/04/22 20:49:21;;;;;;;11.95;6.20;;;;;;;4.83;65.62;100056.89;235009;1174;114604;-65
2021/04/22 20:54:24;;;;;;;9.78;6.70;;;;;;;4.85;65.09;100049.59;235055;1174;115965;-67
2021/04/22 20:59:27;;;;;;;15.77;8.20;;;;;;;4.87;65.76;100055.50;235172;1174;115085;-64
2021/04/22 21:04:30;;;;;;;11.37;7.83;;;;;;;4.88;66.04;100049.22;234945;1174;115586;-64
2021/04/22 21:09:36;;;;;;;14.08;7.05;;;;;;;4.88;66.18;100059.78;233012;1176;115180;-66
2021/04/22 21:14:41;;;;;;;9.83;6.70;;;;;;;4.89;65.91;100060.60;233674;1174;116156;-64
2021/04/22 21:19:44;;;;;;;13.80;7.57;;;;;;;4.90;66.63;100073.59;234916;1174;115285;-66
2021/04/22 21:24:49;;;;;;;23.25;8.10;;;;;;;4.91;66.41;100077.05;233292;1174;115254;-64
2021/04/22 21:29:55;;;;;;;14.20;8.80;;;;;;;4.81;65.62;100077.39;234448;1174;115707;-64
2021/04/22 21:35:01;;;;;;;15.37;8.23;;;;;;;4.74;66.13;100068.58;233955;1174;115378;-65
2021/04/22 21:40:06;;;;;;;16.75;8.05;;;;;;;4.57;66.04;100072.48;233009;1176;115081;-66
2021/04/22 21:45:10;;;;;;;12.73;7.23;;;;;;;4.49;65.61;100069.95;233304;1176;115747;-64
2021/04/22 21:50:20;;;;;;;10.47;6.77;;;;;;;4.31;65.63;100073.80;233646;1174;114906;-67
2021/04/22 21:55:23;;;;;;;11.25;7.10;;;;;;;4.19;66.49;100070.03;233245;1174;115164;-66
2021/04/22 22:00:27;;;;;;;18.30;9.10;;;;;;;4.05;65.88;100070.86;233888;1174;115966;-67
2021/04/22 22:05:31;;;;;;;19.70;9.63;;;;;;;4.00;66.11;100079.32;232694;1175;117084;-66
2021/04/22 22:10:35;;;;;;;20.00;9.13;;;;;;;3.98;66.31;100086.59;234083;1177;116430;-64
2021/04/22 22:15:39;;;;;;;15.15;7.75;;;;;;;3.94;66.96;100079.26;234363;1175;116587;-66
2021/04/22 22:20:45;;;;;;;21.68;9.53;;;;;;;3.90;67.15;100084.08;233103;1176;116075;-63
2021/04/22 22:25:50;;;;;;;15.53;7.70;;;;;;;3.84;67.50;100079.53;234241;1177;116428;-63
2021/04/22 22:30:56;;;;;;;11.45;7.00;;;;;;;3.76;66.68;100073.52;234853;1176;116378;-67
2021/04/22 22:36:02;;;;;;;17.30;7.80;;;;;;;3.69;67.21;100087.42;235192;1176;116427;-67
2021/04/22 22:41:09;;;;;;;17.40;10.20;;;;;;;3.73;67.50;100082.61;234885;1176;117112;-65
2021/04/22 22:46:15;;;;;;;14.90;8.67;;;;;;;3.79;67.87;100083.70;234996;1176;116984;-67
2021/04/22 22:51:18;;;;;;;16.87;9.10;;;;;;;3.81;67.80;100092.26;234894;1174;115822;-64
2021/04/22 22:56:21;;;;;;;17.00;7.88;;;;;;;3.78;67.72;100095.25;234955;1176;116763;-66
2021/04/22 23:01:24;;;;;;;5.70;3.77;;;;;;;3.77;68.35;100086.52;235160;1174;115941;-65
2021/04/22 23:06:29;;;;;;;19.77;9.10;;;;;;;3.75;67.68;100098.25;235209;1174;118078;-64
2021/04/22 23:11:32;;;;;;;12.50;8.05;;;;;;;3.79;67.26;100099.53;235137;1174;115522;-64
2021/04/22 23:16:36;;;;;;;9.00;7.08;;;;;;;3.80;67.82;100109.08;234224;1174;115189;-64
2021/04/22 23:21:40;;;;;;;6.63;4.75;;;;;;;3.78;67.93;100097.89;235104;1174;115290;-66